createdAt,value
2022-12-11T00:00:43.524Z,-0.33
2022-12-11T00:03:15.449Z,-0.28
2022-12-11T00:05:42.732Z,-0.38
2022-12-11T00:08:09.164Z,-0.38
2022-12-11T00:10:38.006Z,-0.32
2022-12-11T00:13:05.185Z,-0.33
2022-12-11T00:15:31.541Z,-0.29
2022-12-11T00:17:57.911Z,-0.29
2022-12-11T00:20:24.831Z,-0.29
2022-12-11T00:22:51.223Z,-0.28
2022-12-11T00:25:17.708Z,-0.24
2022-12-11T00:27:45.973Z,-0.22
2022-12-11T00:30:12.879Z,-0.25
2022-12-11T00:32:39.279Z,-0.27
2022-12-11T00:35:05.666Z,-0.27
2022-12-11T00:37:32.124Z,-0.25
2022-12-11T00:39:58.622Z,-0.27
2022-12-11T00:42:24.966Z,-0.42
2022-12-11T00:44:51.418Z,-0.41
2022-12-11T00:47:17.830Z,-0.39
2022-12-11T00:49:49.623Z,-0.40
2022-12-11T00:52:17.786Z,-0.49
2022-12-11T00:54:44.302Z,-0.52
2022-12-11T00:57:10.608Z,-0.49
2022-12-11T00:59:36.919Z,-0.50
2022-12-11T01:02:03.171Z,-0.48
2022-12-11T01:04:29.421Z,-0.49
2022-12-11T01:06:55.860Z,-0.50
2022-12-11T01:09:41.076Z,-0.47
2022-12-11T01:12:07.477Z,-0.49
2022-12-11T01:14:33.814Z,-0.52
2022-12-11T01:17:00.203Z,-0.51
2022-12-11T01:19:26.716Z,-0.51
2022-12-11T01:21:53.082Z,-0.52
2022-12-11T01:24:19.459Z,-0.62
2022-12-11T01:26:45.820Z,-0.63
2022-12-11T01:29:12.274Z,-0.68
2022-12-11T01:31:38.716Z,-0.69
2022-12-11T01:34:05.048Z,-0.72
2022-12-11T01:36:31.403Z,-0.62
2022-12-11T01:38:58.040Z,-0.54
2022-12-11T01:41:24.483Z,-0.54
2022-12-11T01:44:27.595Z,-0.67
2022-12-11T01:46:54.414Z,-0.70
2022-12-11T01:49:25.232Z,-0.70
2022-12-11T01:51:59.305Z,-0.85
2022-12-11T01:54:27.760Z,-0.94
2022-12-11T01:56:58.973Z,-0.94
2022-12-11T01:59:29.097Z,-0.89
2022-12-11T02:02:04.759Z,-0.93
2022-12-11T02:04:33.016Z,-0.96
2022-12-11T02:06:59.473Z,-0.93
2022-12-11T02:09:35.467Z,-0.90
2022-12-11T02:12:03.986Z,-0.87
2022-12-11T02:14:44.195Z,-0.84
2022-12-11T02:17:17.041Z,-0.85
2022-12-11T02:20:12.813Z,-0.79
2022-12-11T02:23:16.869Z,-0.78
2022-12-11T02:26:07.195Z,-0.73
2022-12-11T02:28:46.083Z,-0.74
2022-12-11T02:31:23.530Z,-0.73
2022-12-11T02:34:01.768Z,-0.77
2022-12-11T02:36:33.166Z,-0.80
2022-12-11T02:39:01.494Z,-0.72
2022-12-11T02:41:29.864Z,-0.71
2022-12-11T02:43:57.838Z,-0.72
2022-12-11T02:46:24.846Z,-0.83
2022-12-11T02:48:52.741Z,-0.81
2022-12-11T02:51:23.993Z,-0.78
2022-12-11T02:53:53.585Z,-0.78
2022-12-11T02:56:26.819Z,-0.77
2022-12-11T02:59:01.817Z,-0.75
2022-12-11T03:01:28.312Z,-0.71
2022-12-11T03:03:55.885Z,-0.70
2022-12-11T03:06:27.548Z,-0.76
2022-12-11T03:08:53.969Z,-0.79
2022-12-11T03:11:20.374Z,-0.76
2022-12-11T03:13:46.761Z,-0.75
2022-12-11T03:16:37.042Z,-0.84
2022-12-11T03:19:22.742Z,-0.83
2022-12-11T03:21:54.699Z,-0.83
2022-12-11T03:24:33.671Z,-0.83
2022-12-11T03:27:25.854Z,-0.85
2022-12-11T03:30:00.156Z,-0.93
2022-12-11T03:32:36.470Z,-0.93
2022-12-11T03:35:13.663Z,-0.92
2022-12-11T03:37:42.231Z,-0.94
2022-12-11T03:40:15.064Z,-0.99
2022-12-11T03:42:45.098Z,-1.07
2022-12-11T03:45:14.235Z,-1.15
2022-12-11T03:47:43.139Z,-1.20
2022-12-11T03:50:12.793Z,-1.26
2022-12-11T03:52:46.040Z,-1.26
2022-12-11T03:55:15.774Z,-1.28
2022-12-11T03:57:42.513Z,-1.29
2022-12-11T04:00:13.542Z,-1.26
2022-12-11T04:02:41.169Z,-1.27
2022-12-11T04:05:09.112Z,-1.24
2022-12-11T04:07:35.962Z,-1.19
2022-12-11T04:10:02.851Z,-1.20
2022-12-11T04:12:29.172Z,-1.14
2022-12-11T04:15:04.324Z,-1.07
2022-12-11T04:17:51.320Z,-1.07
2022-12-11T04:20:37.095Z,-1.17
2022-12-11T04:23:24.014Z,-1.26
2022-12-11T04:25:50.515Z,-1.32
2022-12-11T04:28:16.957Z,-1.38
2022-12-11T04:30:51.065Z,-1.43
2022-12-11T04:33:17.395Z,-1.46
2022-12-11T04:35:43.690Z,-1.49
2022-12-11T04:38:10.084Z,-1.50
2022-12-11T04:40:36.471Z,-1.44
2022-12-11T04:43:03.184Z,-1.40
2022-12-11T04:45:29.550Z,-1.35
2022-12-11T04:47:55.894Z,-1.29
2022-12-11T04:50:22.299Z,-1.24
2022-12-11T04:52:48.683Z,-1.21
2022-12-11T04:55:15.021Z,-1.21
2022-12-11T04:57:41.718Z,-1.19
2022-12-11T05:00:10.843Z,-1.15
2022-12-11T05:02:38.683Z,-1.08
2022-12-11T05:05:06.496Z,-1.04
2022-12-11T05:07:33.045Z,-0.97
2022-12-11T05:09:59.480Z,-0.91
2022-12-11T05:12:26.026Z,-0.91
2022-12-11T05:14:53.557Z,-0.96
2022-12-11T05:17:21.424Z,-0.97
2022-12-11T05:19:49.147Z,-1.02
2022-12-11T05:22:16.188Z,-1.06
2022-12-11T05:24:42.669Z,-1.12
2022-12-11T05:27:10.075Z,-1.18
2022-12-11T05:29:36.866Z,-1.24
2022-12-11T05:32:04.804Z,-1.28
2022-12-11T05:34:31.052Z,-1.36
2022-12-11T05:36:57.357Z,-1.41
2022-12-11T05:39:23.611Z,-1.53
2022-12-11T05:41:50.039Z,-1.61
2022-12-11T05:44:16.517Z,-1.66
2022-12-11T05:46:42.902Z,-1.71
2022-12-11T05:49:10.851Z,-1.79
2022-12-11T05:51:39.553Z,-1.84
2022-12-11T05:54:05.910Z,-1.87
2022-12-11T05:56:34.022Z,-1.89
2022-12-11T05:59:02.007Z,-1.92
2022-12-11T06:01:29.678Z,-1.92
2022-12-11T06:03:57.188Z,-1.91
2022-12-11T06:06:24.277Z,-1.94
2022-12-11T06:08:55.082Z,-1.98
2022-12-11T06:11:24.206Z,-2.01
2022-12-11T06:13:51.511Z,-2.06
2022-12-11T06:16:18.006Z,-2.12
2022-12-11T06:18:45.569Z,-2.18
2022-12-11T06:21:12.504Z,-2.23
2022-12-11T06:23:39.925Z,-2.27
2022-12-11T06:26:07.047Z,-2.32
2022-12-11T06:28:33.406Z,-2.38
2022-12-11T06:31:00.364Z,-2.45
2022-12-11T06:33:26.826Z,-2.52
2022-12-11T06:35:53.533Z,-2.56
2022-12-11T06:38:19.877Z,-2.60
2022-12-11T06:40:46.230Z,-2.63
2022-12-11T06:43:12.590Z,-2.70
2022-12-11T06:45:39.066Z,-2.78
2022-12-11T06:48:05.602Z,-2.81
2022-12-11T06:50:32.004Z,-2.85
2022-12-11T06:52:58.347Z,-2.86
2022-12-11T06:55:24.678Z,-2.92
2022-12-11T06:57:51.183Z,-2.95
2022-12-11T07:00:17.609Z,-2.97
2022-12-11T07:02:44.140Z,-3.01
2022-12-11T07:05:10.969Z,-3.04
2022-12-11T07:07:37.748Z,-3.14
2022-12-11T07:10:08.335Z,-3.18
2022-12-11T07:12:35.561Z,-3.21
2022-12-11T07:15:02.216Z,-3.21
2022-12-11T07:17:29.637Z,-3.25
2022-12-11T07:19:56.187Z,-3.25
2022-12-11T07:22:22.713Z,-3.28
2022-12-11T07:24:49.093Z,-3.23
2022-12-11T07:27:15.452Z,-3.22
2022-12-11T07:29:41.812Z,-3.24
2022-12-11T07:32:08.275Z,-3.22
2022-12-11T07:34:34.815Z,-3.18
2022-12-11T07:37:01.231Z,-3.17
2022-12-11T07:39:27.632Z,-3.13
2022-12-11T07:41:54.004Z,-3.12
2022-12-11T07:44:20.623Z,-3.02
2022-12-11T07:46:47.230Z,-2.93
2022-12-11T07:49:13.599Z,-2.85
2022-12-11T07:51:40.212Z,-2.76
2022-12-11T07:54:10.646Z,-2.65
2022-12-11T07:56:36.996Z,-2.51
2022-12-11T07:59:05.917Z,-2.45
2022-12-11T08:01:36.332Z,-2.30
2022-12-11T08:04:05.326Z,-2.22
2022-12-11T08:06:34.641Z,-2.19
2022-12-11T08:09:03.643Z,-2.08
2022-12-11T08:11:30.544Z,-2.00
2022-12-11T08:13:59.259Z,-2.04
2022-12-11T08:16:26.560Z,-2.00
2022-12-11T08:18:53.460Z,-1.97
2022-12-11T08:21:22.655Z,-1.88
2022-12-11T08:23:50.336Z,-1.74
2022-12-11T08:26:28.353Z,-1.57
2022-12-11T08:28:55.421Z,-1.37
2022-12-11T08:31:22.469Z,-1.18
2022-12-11T08:33:49.233Z,-1.07
2022-12-11T08:36:18.734Z,-1.16
2022-12-11T08:38:46.546Z,-1.00
2022-12-11T08:41:21.911Z,-0.98
2022-12-11T08:43:48.437Z,-1.06
2022-12-11T08:46:15.510Z,-1.08
2022-12-11T08:48:43.280Z,-0.98
2022-12-11T08:51:14.777Z,-0.87
2022-12-11T08:53:41.525Z,-0.86
2022-12-11T08:56:11.155Z,-0.90
2022-12-11T08:58:37.772Z,-0.86
2022-12-11T09:01:12.159Z,-0.80
2022-12-11T09:03:39.954Z,-0.72
2022-12-11T09:06:11.880Z,-0.62
2022-12-11T09:08:39.663Z,-0.50
2022-12-11T09:11:11.262Z,-0.36
2022-12-11T09:13:39.007Z,-0.28
2022-12-11T09:16:08.014Z,-0.20
2022-12-11T09:18:34.718Z,-0.08
2022-12-11T09:21:03.828Z,0.06
2022-12-11T09:23:30.406Z,0.09
2022-12-11T09:25:57.123Z,0.09
2022-12-11T09:28:23.767Z,0.19
2022-12-11T09:30:50.927Z,0.35
2022-12-11T09:33:17.800Z,0.43
2022-12-11T09:35:44.222Z,0.40
2022-12-11T09:38:10.605Z,0.30
2022-12-11T09:40:43.182Z,0.00
2022-12-11T09:43:17.185Z,-0.13
2022-12-11T09:45:43.545Z,-0.08
2022-12-11T09:48:11.055Z,-0.11
2022-12-11T09:50:37.632Z,-0.12
2022-12-11T09:53:18.759Z,-0.11
2022-12-11T09:56:00.213Z,-0.20
2022-12-11T09:58:51.080Z,-0.16
2022-12-11T10:01:35.795Z,-0.12
2022-12-11T10:04:22.852Z,-0.27
2022-12-11T10:06:56.534Z,-0.32
2022-12-11T10:09:35.877Z,-0.32
2022-12-11T10:12:13.451Z,-0.31
2022-12-11T10:14:47.015Z,-0.33
2022-12-11T10:17:20.798Z,-0.41
2022-12-11T10:19:48.279Z,-0.39
2022-12-11T10:22:22.754Z,-0.24
2022-12-11T10:25:12.731Z,-0.14
2022-12-11T10:27:40.759Z,-0.13
2022-12-11T10:30:13.149Z,-0.19
2022-12-11T10:32:58.234Z,-0.28
2022-12-11T10:35:33.933Z,-0.22
2022-12-11T10:38:30.491Z,-0.13
2022-12-11T10:41:26.867Z,-0.11
2022-12-11T10:43:53.816Z,-0.07
2022-12-11T10:46:25.890Z,-0.04
2022-12-11T10:48:53.629Z,0.02
2022-12-11T10:51:26.427Z,-0.01
2022-12-11T10:53:55.518Z,0.11
2022-12-11T10:56:27.291Z,0.10
2022-12-11T10:58:55.184Z,0.08
2022-12-11T11:01:23.110Z,0.11
2022-12-11T11:04:18.903Z,0.10
2022-12-11T11:06:45.280Z,0.15
2022-12-11T11:09:33.691Z,0.19
2022-12-11T11:12:05.975Z,0.04
2022-12-11T11:14:34.213Z,-0.03
2022-12-11T11:17:01.171Z,0.03
2022-12-11T11:19:33.539Z,0.10
2022-12-11T11:22:14.792Z,0.13
2022-12-11T11:24:51.967Z,0.09
2022-12-11T11:27:30.994Z,0.11
2022-12-11T11:30:01.595Z,0.05
2022-12-11T11:32:34.206Z,0.11
2022-12-11T11:35:18.554Z,-0.07
2022-12-11T11:37:59.794Z,-0.12
2022-12-11T11:40:30.385Z,-0.19
2022-12-11T11:43:18.516Z,-0.27
2022-12-11T11:46:00.728Z,-0.41
2022-12-11T11:48:48.964Z,-0.35
2022-12-11T11:51:18.443Z,-0.36
2022-12-11T11:53:49.656Z,-0.33
2022-12-11T11:56:26.595Z,-0.26
2022-12-11T11:59:19.043Z,-0.23
2022-12-11T12:01:45.507Z,-0.20
2022-12-11T12:04:12.270Z,-0.15
2022-12-11T12:06:51.189Z,-0.08
2022-12-11T12:09:30.394Z,-0.03
2022-12-11T12:12:25.667Z,0.01
2022-12-11T12:15:18.318Z,0.02
2022-12-11T12:17:56.204Z,0.07
2022-12-11T12:20:44.418Z,0.17
2022-12-11T12:23:38.483Z,0.15
2022-12-11T12:26:21.811Z,0.07
2022-12-11T12:29:14.155Z,0.07
2022-12-11T12:31:40.465Z,0.01
2022-12-11T12:34:20.357Z,-0.05
2022-12-11T12:37:00.225Z,-0.18
2022-12-11T12:39:44.543Z,-0.57
2022-12-11T12:42:37.923Z,-0.52
2022-12-11T12:45:16.335Z,-0.52
2022-12-11T12:47:50.411Z,-0.49
2022-12-11T12:50:25.700Z,-0.51
2022-12-11T12:52:53.845Z,-0.66
2022-12-11T12:55:34.779Z,-0.56
2022-12-11T12:58:05.144Z,-0.47
2022-12-11T13:00:37.396Z,-0.33
2022-12-11T13:03:18.494Z,-0.37
2022-12-11T13:05:55.991Z,-0.38
2022-12-11T13:08:27.810Z,-0.46
2022-12-11T13:11:03.606Z,-0.51
2022-12-11T13:13:38.500Z,-0.55
2022-12-11T13:16:17.181Z,-0.61
2022-12-11T13:18:47.346Z,-0.62
2022-12-11T13:21:33.124Z,-0.62
2022-12-11T13:24:46.477Z,-0.60
2022-12-11T13:27:42.813Z,-0.55
2022-12-11T13:30:14.803Z,-0.50
2022-12-11T13:32:43.588Z,-0.53
2022-12-11T13:35:16.249Z,-0.51
2022-12-11T13:37:49.797Z,-0.60
2022-12-11T13:40:25.891Z,-0.47
2022-12-11T13:42:56.950Z,-0.50
2022-12-11T13:45:29.011Z,-0.64
2022-12-11T13:47:59.014Z,-0.52
2022-12-11T13:50:29.972Z,-0.55
2022-12-11T13:52:58.557Z,-0.57
2022-12-11T13:55:31.316Z,-0.53
2022-12-11T13:57:58.197Z,-0.53
2022-12-11T14:00:30.394Z,-0.57
2022-12-11T14:03:00.253Z,-0.69
2022-12-11T14:05:28.396Z,-0.74
2022-12-11T14:08:02.319Z,-0.78
2022-12-11T14:10:32.379Z,-0.83
2022-12-11T14:13:19.786Z,-0.89
2022-12-11T14:15:46.546Z,-0.96
2022-12-11T14:18:17.861Z,-0.95
2022-12-11T14:20:44.260Z,-1.05
2022-12-11T14:23:18.966Z,-1.02
2022-12-11T14:25:56.766Z,-1.00
2022-12-11T14:28:27.486Z,-0.98
2022-12-11T14:30:58.081Z,-1.04
2022-12-11T14:33:30.562Z,-1.12
2022-12-11T14:35:57.834Z,-1.16
2022-12-11T14:38:33.444Z,-1.22
2022-12-11T14:41:05.177Z,-1.40
2022-12-11T14:43:44.987Z,-1.54
2022-12-11T14:46:19.642Z,-1.55
2022-12-11T14:49:02.197Z,-1.55
2022-12-11T14:51:38.567Z,-1.58
2022-12-11T14:54:06.261Z,-1.60
2022-12-11T14:56:33.484Z,-1.65
2022-12-11T14:59:06.580Z,-1.68
2022-12-11T15:01:37.350Z,-1.72
2022-12-11T15:04:07.163Z,-1.72
2022-12-11T15:06:45.441Z,-1.76
2022-12-11T15:09:36.519Z,-1.73
2022-12-11T15:12:15.766Z,-1.68
2022-12-11T15:14:58.148Z,-1.68
2022-12-11T15:17:26.020Z,-1.63
2022-12-11T15:20:02.406Z,-1.60
2022-12-11T15:22:32.247Z,-1.58
2022-12-11T15:25:00.009Z,-1.57
2022-12-11T15:27:35.598Z,-1.60
2022-12-11T15:30:14.396Z,-1.57
2022-12-11T15:32:41.094Z,-1.59
2022-12-11T15:35:27.348Z,-1.60
2022-12-11T15:37:56.253Z,-1.57
2022-12-11T15:40:23.240Z,-1.53
2022-12-11T15:42:50.839Z,-1.54
2022-12-11T15:45:20.409Z,-1.62
2022-12-11T15:47:48.221Z,-1.68
2022-12-11T15:50:41.414Z,-1.76
2022-12-11T15:53:09.112Z,-1.81
2022-12-11T15:55:38.281Z,-1.86
2022-12-11T15:58:07.691Z,-1.87
2022-12-11T16:00:34.006Z,-1.89
2022-12-11T16:03:00.365Z,-1.82
2022-12-11T16:05:26.858Z,-1.84
2022-12-11T16:07:54.656Z,-1.83
2022-12-11T16:10:22.068Z,-1.92
2022-12-11T16:12:48.451Z,-1.89
2022-12-11T16:15:21.465Z,-1.93
2022-12-11T16:17:49.752Z,-1.95
2022-12-11T16:20:16.173Z,-1.96
2022-12-11T16:22:42.499Z,-1.95
2022-12-11T16:25:09.021Z,-1.96
2022-12-11T16:27:35.605Z,-2.01
2022-12-11T16:30:02.016Z,-2.02
2022-12-11T16:32:28.361Z,-2.06
2022-12-11T16:34:54.896Z,-2.07
2022-12-11T16:37:21.389Z,-2.05
2022-12-11T16:39:48.068Z,-2.06
2022-12-11T16:42:14.392Z,-2.03
2022-12-11T16:44:43.962Z,-2.13
2022-12-11T16:47:10.721Z,-2.10
2022-12-11T16:49:37.138Z,-2.04
2022-12-11T16:52:03.694Z,-2.02
2022-12-11T16:54:30.089Z,-2.01
2022-12-11T16:56:56.441Z,-1.98
2022-12-11T16:59:22.782Z,-1.98
2022-12-11T17:01:50.573Z,-1.98
2022-12-11T17:04:17.033Z,-1.95
2022-12-11T17:06:43.395Z,-2.00
2022-12-11T17:09:09.721Z,-2.01
2022-12-11T17:11:36.083Z,-2.04
2022-12-11T17:14:02.469Z,-2.01
2022-12-11T17:16:30.492Z,-1.98
2022-12-11T17:18:57.386Z,-1.93
2022-12-11T17:21:23.866Z,-1.87
2022-12-11T17:23:50.814Z,-1.82
2022-12-11T17:26:18.242Z,-1.82
2022-12-11T17:28:45.143Z,-1.81
2022-12-11T17:31:17.197Z,-1.77
2022-12-11T17:33:44.861Z,-1.77
2022-12-11T17:36:17.999Z,-1.72
2022-12-11T17:38:44.655Z,-1.72
2022-12-11T17:41:19.806Z,-1.67
2022-12-11T17:43:48.299Z,-1.67
2022-12-11T17:46:14.908Z,-1.64
2022-12-11T17:48:41.414Z,-1.66
2022-12-11T17:51:09.304Z,-1.66
2022-12-11T17:53:36.678Z,-1.64
2022-12-11T17:56:05.807Z,-1.60
2022-12-11T17:58:32.721Z,-1.62
2022-12-11T18:00:59.815Z,-1.67
2022-12-11T18:03:28.142Z,-1.64
2022-12-11T18:05:56.593Z,-1.66
2022-12-11T18:08:26.941Z,-1.62
2022-12-11T18:10:54.267Z,-1.59
2022-12-11T18:13:21.907Z,-1.59
2022-12-11T18:16:04.048Z,-1.57
2022-12-11T18:18:31.025Z,-1.57
2022-12-11T18:20:57.452Z,-1.64
2022-12-11T18:23:24.098Z,-1.61
2022-12-11T18:25:52.080Z,-1.55
2022-12-11T18:28:18.894Z,-1.51
2022-12-11T18:30:45.568Z,-1.49
2022-12-11T18:33:13.023Z,-1.50
2022-12-11T18:35:40.294Z,-1.53
2022-12-11T18:38:07.209Z,-1.52
2022-12-11T18:40:34.160Z,-1.55
2022-12-11T18:43:00.562Z,-1.54
2022-12-11T18:45:27.048Z,-1.52
2022-12-11T18:47:55.602Z,-1.53
2022-12-11T18:50:22.009Z,-1.45
2022-12-11T18:52:53.070Z,-1.35
2022-12-11T18:55:19.430Z,-1.29
2022-12-11T18:57:45.828Z,-1.24
2022-12-11T19:00:13.158Z,-1.23
2022-12-11T19:02:39.803Z,-1.21
2022-12-11T19:05:06.423Z,-1.19
2022-12-11T19:07:32.869Z,-1.21
2022-12-11T19:09:59.228Z,-1.23
2022-12-11T19:12:25.680Z,-1.22
2022-12-11T19:14:52.038Z,-1.20
2022-12-11T19:17:18.382Z,-1.13
2022-12-11T19:19:46.250Z,-1.10
2022-12-11T19:22:13.206Z,-1.09
2022-12-11T19:24:39.797Z,-1.09
2022-12-11T19:27:13.088Z,-1.10
2022-12-11T19:29:40.152Z,-1.16
2022-12-11T19:32:06.621Z,-1.16
2022-12-11T19:34:33.069Z,-1.19
2022-12-11T19:36:59.549Z,-1.18
2022-12-11T19:39:26.213Z,-1.15
2022-12-11T19:41:52.597Z,-1.15
2022-12-11T19:44:18.999Z,-1.15
2022-12-11T19:46:45.465Z,-1.17
2022-12-11T19:49:12.134Z,-1.18
2022-12-11T19:51:40.576Z,-1.21
2022-12-11T19:54:09.041Z,-1.22
2022-12-11T19:56:36.128Z,-1.20
2022-12-11T19:59:07.250Z,-1.22
2022-12-11T20:01:36.545Z,-1.21
2022-12-11T20:04:06.451Z,-1.21
2022-12-11T20:06:35.785Z,-1.21
2022-12-11T20:09:05.681Z,-1.20
2022-12-11T20:11:33.472Z,-1.23
2022-12-11T20:13:59.959Z,-1.23
2022-12-11T20:16:53.423Z,-1.29
2022-12-11T20:19:12.950Z,-1.29
2022-12-11T20:21:39.330Z,-1.28
2022-12-11T20:24:06.489Z,-1.26
2022-12-11T20:26:35.887Z,-1.23
2022-12-11T20:29:05.153Z,-1.21
2022-12-11T20:31:31.605Z,-1.21
2022-12-11T20:33:58.126Z,-1.19
2022-12-11T20:36:25.912Z,-1.16
2022-12-11T20:38:52.238Z,-1.16
2022-12-11T20:41:23.765Z,-1.23
2022-12-11T20:43:50.650Z,-1.29
2022-12-11T20:46:18.549Z,-1.32
2022-12-11T20:48:45.543Z,-1.32
2022-12-11T20:51:14.579Z,-1.31
2022-12-11T20:53:42.326Z,-1.27
2022-12-11T20:56:14.683Z,-1.25
2022-12-11T20:58:41.267Z,-1.31
2022-12-11T21:01:12.488Z,-1.32
2022-12-11T21:03:41.991Z,-1.33
2022-12-11T21:06:17.278Z,-1.37
2022-12-11T21:08:43.619Z,-1.41
2022-12-11T21:11:10.443Z,-1.42
2022-12-11T21:13:37.275Z,-1.43
2022-12-11T21:16:07.936Z,-1.40
2022-12-11T21:18:34.411Z,-1.38
2022-12-11T21:21:00.769Z,-1.40
2022-12-11T21:23:27.144Z,-1.48
2022-12-11T21:25:53.985Z,-1.47
2022-12-11T21:28:20.958Z,-1.51
2022-12-11T21:30:47.365Z,-1.56
2022-12-11T21:33:13.997Z,-1.67
2022-12-11T21:35:40.524Z,-1.66
2022-12-11T21:38:06.944Z,-1.66
2022-12-11T21:40:34.042Z,-1.68
2022-12-11T21:43:00.477Z,-1.73
2022-12-11T21:45:59.356Z,-1.67
2022-12-11T21:48:13.796Z,-1.74
2022-12-11T21:50:41.214Z,-1.68
2022-12-11T21:53:07.556Z,-1.71
2022-12-11T21:55:33.970Z,-1.69
2022-12-11T21:58:00.363Z,-1.63
2022-12-11T22:00:28.171Z,-1.64
2022-12-11T22:02:54.704Z,-1.61
2022-12-11T22:05:21.189Z,-1.61
2022-12-11T22:07:47.577Z,-1.62
2022-12-11T22:10:14.022Z,-1.57
2022-12-11T22:12:40.440Z,-1.57
2022-12-11T22:15:07.709Z,-1.60
2022-12-11T22:17:34.121Z,-1.65
2022-12-11T22:20:00.480Z,-1.64
2022-12-11T22:22:26.967Z,-1.61
2022-12-11T22:24:53.302Z,-1.63
2022-12-11T22:27:23.664Z,-1.66
2022-12-11T22:29:50.276Z,-1.67
2022-12-11T22:32:16.656Z,-1.70
2022-12-11T22:34:43.045Z,-1.68
2022-12-11T22:37:09.532Z,-1.64
2022-12-11T22:39:35.886Z,-1.62
2022-12-11T22:42:02.250Z,-1.58
2022-12-11T22:44:28.602Z,-1.61
2022-12-11T22:46:55.053Z,-1.59
2022-12-11T22:49:21.456Z,-1.57
2022-12-11T22:51:48.928Z,-1.59
2022-12-11T22:54:15.486Z,-1.59
2022-12-11T22:56:41.801Z,-1.56
2022-12-11T22:59:08.281Z,-1.55
2022-12-11T23:01:34.726Z,-1.54
2022-12-11T23:04:01.051Z,-1.58
2022-12-11T23:06:27.519Z,-1.59
2022-12-11T23:08:58.219Z,-1.55
2022-12-11T23:11:34.807Z,-1.58
2022-12-11T23:14:01.475Z,-1.60
2022-12-11T23:16:28.373Z,-1.55
2022-12-11T23:18:55.958Z,-1.61
2022-12-11T23:21:23.125Z,-1.64
2022-12-11T23:23:49.688Z,-1.61
2022-12-11T23:26:18.630Z,-1.63
2022-12-11T23:28:46.037Z,-1.62
2022-12-11T23:31:12.558Z,-1.57
2022-12-11T23:33:39.041Z,-1.55
2022-12-11T23:36:06.076Z,-1.53
2022-12-11T23:38:32.581Z,-1.43
2022-12-11T23:41:01.413Z,-1.39
2022-12-11T23:43:27.918Z,-1.43
2022-12-11T23:45:54.423Z,-1.42
2022-12-11T23:48:21.031Z,-1.46
2022-12-11T23:50:48.090Z,-1.49
2022-12-11T23:53:14.927Z,-1.47
2022-12-11T23:55:43.873Z,-1.50
2022-12-11T23:58:10.746Z,-1.56
